Time;durP1;ratioP1;P1;durP2;ratioP2;P2;SDS_P1;SDS_P2;PMS_P1;PMS_P2;Temp;Humidity;BMP_temperature;BMP_pressure;BME280_temperature;BME280_humidity;BME280_pressure;Samples;Min_cycle;Max_cycle;Signal;HPM_P1;HPM_P2
2022/03/03 00:00:48;;;;;;;;;;;2.40;99.90;;;;;;4984340;28;19928;-79
2022/03/03 00:03:14;;;;;;;;;;;2.50;99.90;;;;;;4964609;28;19932;-79
2022/03/03 00:05:40;;;;;;;;;;;2.40;99.90;;;;;;4963931;28;20423;-79
2022/03/03 00:08:05;;;;;;;;;;;2.20;99.90;;;;;;4967614;28;20425;-79
2022/03/03 00:10:31;;;;;;;;;;;2.20;99.90;;;;;;4965888;28;20074;-79
2022/03/03 00:12:57;;;;;;;;;;;2.20;99.90;;;;;;4958421;28;19924;-80
2022/03/03 00:15:23;;;;;;;;;;;2.10;99.90;;;;;;4979165;28;20146;-80
2022/03/03 00:17:48;;;;;;;;;;;2.10;99.90;;;;;;4962349;28;19928;-80
2022/03/03 00:20:14;;;;;;;;;;;2.10;99.90;;;;;;4928001;28;20501;-80
2022/03/03 00:22:40;;;;;;;;;;;2.10;99.90;;;;;;4980277;28;20098;-80
2022/03/03 00:25:05;;;;;;;;;;;2.20;99.90;;;;;;4965465;28;20661;-80
2022/03/03 00:27:31;;;;;;;;;;;2.40;99.90;;;;;;4965556;28;19963;-80
2022/03/03 00:29:57;;;;;;;;;;;2.40;99.90;;;;;;4961190;28;20519;-80
2022/03/03 00:32:22;;;;;;;;;;;2.30;99.90;;;;;;4965618;28;19982;-80
2022/03/03 00:34:48;;;;;;;;;;;2.30;99.90;;;;;;4943288;28;19933;-80
2022/03/03 00:37:14;;;;;;;;;;;2.20;99.90;;;;;;4980062;28;20612;-80
2022/03/03 00:39:39;;;;;;;;;;;2.20;99.90;;;;;;4958062;28;20471;-80
2022/03/03 00:42:05;;;;;;;;;;;2.20;99.90;;;;;;4928092;28;20500;-80
2022/03/03 00:44:31;;;;;;;;;;;2.40;99.90;;;;;;4956692;28;20449;-80
2022/03/03 00:46:57;;;;;;;;;;;2.30;99.90;;;;;;4964328;28;20352;-80
2022/03/03 00:49:23;;;;;;;;;;;2.20;99.90;;;;;;4961168;28;20019;-80
2022/03/03 00:51:49;;;;;;;;;;;2.30;99.90;;;;;;4947946;28;20369;-80
2022/03/03 00:54:14;;;;;;;;;;;2.20;99.90;;;;;;4976520;28;19932;-80
2022/03/03 00:56:40;;;;;;;;;;;2.30;99.90;;;;;;4960948;28;19982;-80
2022/03/03 00:59:06;;;;;;;;;;;2.20;99.90;;;;;;4976671;28;20657;-80
2022/03/03 01:01:32;;;;;;;;;;;2.10;99.90;;;;;;4982001;28;19928;-80
2022/03/03 01:03:57;;;;;;;;;;;2.00;99.90;;;;;;4962277;28;20708;-80
2022/03/03 01:06:23;;;;;;;;;;;2.00;99.90;;;;;;4969024;28;19947;-80
2022/03/03 01:08:48;;;;;;;;;;;1.80;99.90;;;;;;4963409;28;19929;-80
2022/03/03 01:11:14;;;;;;;;;;;1.80;99.90;;;;;;4978596;28;20018;-80
2022/03/03 01:13:40;;;;;;;;;;;1.90;99.90;;;;;;4942604;28;19933;-80
2022/03/03 01:16:05;;;;;;;;;;;1.70;99.90;;;;;;4978807;28;19929;-80
2022/03/03 01:18:31;;;;;;;;;;;1.70;99.90;;;;;;4954798;28;19963;-80
2022/03/03 01:20:57;;;;;;;;;;;1.80;99.90;;;;;;4957769;28;20421;-80
2022/03/03 01:23:22;;;;;;;;;;;1.90;99.90;;;;;;4975292;28;20185;-80
2022/03/03 01:25:48;;;;;;;;;;;1.70;99.90;;;;;;4977766;28;20335;-80
2022/03/03 01:28:14;;;;;;;;;;;1.70;99.90;;;;;;4957250;28;20763;-80
2022/03/03 01:30:40;;;;;;;;;;;1.80;99.90;;;;;;4962237;28;19928;-80
2022/03/03 01:33:06;;;;;;;;;;;1.60;99.90;;;;;;4975420;28;19932;-80
2022/03/03 01:35:34;;;;;;;;;;;1.60;99.90;;;;;;4959391;28;19979;-80
2022/03/03 01:37:59;;;;;;;;;;;1.60;99.90;;;;;;4976769;28;19952;-80
2022/03/03 01:40:25;;;;;;;;;;;1.60;99.90;;;;;;4959024;28;20643;-80
2022/03/03 01:42:51;;;;;;;;;;;1.60;99.90;;;;;;4962195;28;20334;-80
2022/03/03 01:45:17;;;;;;;;;;;1.80;99.90;;;;;;4955622;28;20092;-80
2022/03/03 01:47:43;;;;;;;;;;;1.70;99.90;;;;;;4955092;28;19939;-80
2022/03/03 01:50:09;;;;;;;;;;;1.60;99.90;;;;;;4980471;28;20564;-80
2022/03/03 01:52:34;;;;;;;;;;;1.70;99.90;;;;;;4958456;28;20324;-80
2022/03/03 01:55:00;;;;;;;;;;;1.80;99.90;;;;;;4975848;28;20607;-80
2022/03/03 01:57:26;;;;;;;;;;;1.60;99.90;;;;;;4971880;28;19971;-80
2022/03/03 01:59:51;;;;;;;;;;;1.60;99.90;;;;;;4977882;28;20293;-80
2022/03/03 02:02:17;;;;;;;;;;;1.40;99.90;;;;;;4977223;28;20766;-80
2022/03/03 02:04:43;;;;;;;;;;;1.50;99.90;;;;;;4981983;28;20708;-80
2022/03/03 02:07:10;;;;;;;;;;;1.30;99.90;;;;;;4979993;28;19932;-80
2022/03/03 02:09:36;;;;;;;;;;;1.40;99.90;;;;;;4975411;28;19974;-80
2022/03/03 02:12:02;;;;;;;;;;;1.30;99.90;;;;;;4957751;28;20690;-80
2022/03/03 02:14:27;;;;;;;;;;;1.30;99.90;;;;;;4959468;28;19939;-81
2022/03/03 02:16:53;;;;;;;;;;;1.50;99.90;;;;;;4956052;28;20023;-80
2022/03/03 02:19:19;;;;;;;;;;;1.30;99.90;;;;;;4960456;28;19935;-80
2022/03/03 02:21:46;;;;;;;;;;;1.40;99.90;;;;;;4976533;28;20133;-80
2022/03/03 02:24:12;;;;;;;;;;;1.30;99.90;;;;;;4973492;28;19928;-80
2022/03/03 02:26:39;;;;;;;;;;;1.10;99.90;;;;;;4956430;28;20321;-80
2022/03/03 02:29:05;;;;;;;;;;;1.30;99.90;;;;;;4956633;28;20384;-80
2022/03/03 02:31:30;;;;;;;;;;;1.20;99.90;;;;;;4961005;28;20378;-80
2022/03/03 02:33:56;;;;;;;;;;;1.10;99.90;;;;;;4960397;28;19975;-80
2022/03/03 02:36:23;;;;;;;;;;;1.10;99.90;;;;;;4958356;28;20429;-80
2022/03/03 02:38:54;;;;;;;;;;;1.00;99.90;;;;;;4952496;28;19981;-80
2022/03/03 02:41:20;;;;;;;;;;;0.90;99.90;;;;;;4981179;28;20015;-80
2022/03/03 02:43:46;;;;;;;;;;;0.80;99.90;;;;;;4953581;28;20855;-80
2022/03/03 02:46:12;;;;;;;;;;;0.90;99.90;;;;;;4957047;28;19978;-80
2022/03/03 02:48:38;;;;;;;;;;;1.10;99.90;;;;;;4981293;28;19939;-80
2022/03/03 02:51:04;;;;;;;;;;;1.00;99.90;;;;;;4971747;28;20336;-80
2022/03/03 02:53:30;;;;;;;;;;;1.00;99.90;;;;;;4974227;28;20701;-80
2022/03/03 02:55:56;;;;;;;;;;;0.90;99.90;;;;;;4954539;28;19981;-80
2022/03/03 02:58:46;;;;;;;;;;;0.90;99.90;;;;;;4963575;28;19939;-80
2022/03/03 03:01:12;;;;;;;;;;;0.90;99.90;;;;;;4944931;28;20283;-80
2022/03/03 03:03:38;;;;;;;;;;;0.90;99.90;;;;;;4962810;28;19950;-80
2022/03/03 03:06:04;;;;;;;;;;;0.90;99.90;;;;;;4952927;28;19937;-80
2022/03/03 03:08:29;;;;;;;;;;;1.00;99.90;;;;;;4977295;28;19936;-80
2022/03/03 03:10:55;;;;;;;;;;;1.00;99.90;;;;;;4980534;28;19929;-80
2022/03/03 03:13:21;;;;;;;;;;;0.90;99.90;;;;;;4980800;28;19928;-80
2022/03/03 03:15:46;;;;;;;;;;;0.90;99.90;;;;;;4976484;28;20273;-80
2022/03/03 03:18:13;;;;;;;;;;;1.00;99.90;;;;;;4978102;28;19933;-80
2022/03/03 03:20:40;;;;;;;;;;;0.90;99.90;;;;;;4957973;28;19967;-80
2022/03/03 03:23:06;;;;;;;;;;;0.90;99.90;;;;;;4959282;28;20034;-80
2022/03/03 03:25:32;;;;;;;;;;;0.70;99.90;;;;;;4983318;28;20027;-80
2022/03/03 03:27:57;;;;;;;;;;;0.60;99.90;;;;;;4959109;28;19935;-80
2022/03/03 03:30:23;;;;;;;;;;;0.80;99.90;;;;;;4951256;28;20293;-80
2022/03/03 03:32:48;;;;;;;;;;;0.70;99.90;;;;;;4960562;28;20677;-80
2022/03/03 03:35:14;;;;;;;;;;;0.70;99.90;;;;;;4961505;28;20313;-80
2022/03/03 03:37:39;;;;;;;;;;;0.70;99.90;;;;;;4964845;28;20065;-80
2022/03/03 03:40:07;;;;;;;;;;;0.60;99.90;;;;;;4966242;28;19979;-80
2022/03/03 03:42:33;;;;;;;;;;;0.60;99.90;;;;;;4958796;28;20556;-80
2022/03/03 03:44:59;;;;;;;;;;;0.60;99.90;;;;;;4944653;28;20789;-80
2022/03/03 03:47:24;;;;;;;;;;;0.60;99.90;;;;;;4959054;28;20428;-80
2022/03/03 03:49:51;;;;;;;;;;;0.60;99.90;;;;;;4962363;28;20407;-80
2022/03/03 03:52:16;;;;;;;;;;;0.60;99.90;;;;;;4978894;28;19928;-80
2022/03/03 03:54:42;;;;;;;;;;;0.60;99.90;;;;;;4960965;28;20333;-80
2022/03/03 03:57:08;;;;;;;;;;;0.60;99.90;;;;;;4960742;28;20027;-80
2022/03/03 03:59:33;;;;;;;;;;;0.60;99.90;;;;;;4962674;28;19943;-80
2022/03/03 04:01:59;;;;;;;;;;;0.50;99.90;;;;;;4961769;28;20341;-80
2022/03/03 04:04:25;;;;;;;;;;;0.60;99.90;;;;;;4961944;28;20388;-80
2022/03/03 04:06:50;;;;;;;;;;;0.50;99.90;;;;;;4956110;28;19933;-80
2022/03/03 04:09:16;;;;;;;;;;;0.50;99.90;;;;;;4964024;28;19928;-81
2022/03/03 04:11:41;;;;;;;;;;;0.40;99.90;;;;;;4956722;28;20549;-80
2022/03/03 04:14:07;;;;;;;;;;;0.50;99.90;;;;;;4980596;28;19928;-80
2022/03/03 04:16:33;;;;;;;;;;;0.50;99.90;;;;;;4970125;28;19978;-81
2022/03/03 04:18:58;;;;;;;;;;;0.40;99.90;;;;;;4977878;28;20481;-80
2022/03/03 04:21:24;;;;;;;;;;;0.50;99.90;;;;;;4975537;28;19928;-80
2022/03/03 04:23:49;;;;;;;;;;;0.60;99.90;;;;;;4956439;28;20880;-80
2022/03/03 04:26:15;;;;;;;;;;;0.50;99.90;;;;;;4958322;28;20626;-81
2022/03/03 04:28:41;;;;;;;;;;;0.60;99.90;;;;;;4958290;28;20166;-80
2022/03/03 04:31:06;;;;;;;;;;;0.80;99.90;;;;;;4957589;28;19933;-80
2022/03/03 04:33:32;;;;;;;;;;;0.70;99.90;;;;;;4960436;28;20011;-81
2022/03/03 04:35:58;;;;;;;;;;;0.70;99.90;;;;;;4956292;28;20682;-80
2022/03/03 04:38:24;;;;;;;;;;;1.00;99.90;;;;;;4958028;28;20754;-80
2022/03/03 04:40:50;;;;;;;;;;;0.90;99.90;;;;;;4959161;28;19928;-81
2022/03/03 04:43:15;;;;;;;;;;;0.90;99.90;;;;;;4961744;28;19928;-80
2022/03/03 04:45:42;;;;;;;;;;;0.90;99.90;;;;;;4968075;28;20553;-80
2022/03/03 04:48:08;;;;;;;;;;;1.00;99.90;;;;;;4963788;28;20641;-81
2022/03/03 04:50:34;;;;;;;;;;;0.90;99.90;;;;;;4963669;28;19934;-81
2022/03/03 04:53:00;;;;;;;;;;;1.10;99.90;;;;;;4974028;28;19928;-80
2022/03/03 04:55:26;;;;;;;;;;;1.20;99.90;;;;;;4969648;28;19935;-80
2022/03/03 04:57:51;;;;;;;;;;;1.10;99.90;;;;;;4962687;28;20005;-81
2022/03/03 05:00:17;;;;;;;;;;;1.20;99.90;;;;;;4977275;28;20050;-81
2022/03/03 05:02:43;;;;;;;;;;;1.10;99.90;;;;;;4974820;28;19978;-81
2022/03/03 05:05:09;;;;;;;;;;;1.10;99.90;;;;;;4975821;28;19925;-81
2022/03/03 05:07:34;;;;;;;;;;;1.20;99.90;;;;;;4957344;28;19924;-80
2022/03/03 05:10:00;;;;;;;;;;;1.20;99.90;;;;;;4964508;28;19928;-81
2022/03/03 05:12:26;;;;;;;;;;;1.20;99.90;;;;;;4976315;28;20459;-81
2022/03/03 05:14:52;;;;;;;;;;;1.00;99.90;;;;;;4980351;28;20869;-81
2022/03/03 05:17:18;;;;;;;;;;;0.90;99.90;;;;;;4979243;28;20152;-81
2022/03/03 05:19:43;;;;;;;;;;;0.80;99.90;;;;;;4980626;28;20563;-81
2022/03/03 05:22:10;;;;;;;;;;;0.80;99.90;;;;;;4957369;28;19934;-80
2022/03/03 05:24:35;;;;;;;;;;;0.80;99.90;;;;;;4959467;28;20327;-80
2022/03/03 05:27:01;;;;;;;;;;;0.70;99.90;;;;;;4939557;28;19932;-80
2022/03/03 05:29:27;;;;;;;;;;;0.80;99.90;;;;;;4960234;28;20003;-80
2022/03/03 05:31:54;;;;;;;;;;;0.70;99.90;;;;;;4982608;28;19932;-80
2022/03/03 05:34:19;;;;;;;;;;;0.60;99.90;;;;;;4956926;28;19928;-81
2022/03/03 05:36:45;;;;;;;;;;;0.60;99.90;;;;;;4975285;28;19935;-81
2022/03/03 05:39:11;;;;;;;;;;;0.60;99.90;;;;;;4951645;28;19967;-81
2022/03/03 05:41:37;;;;;;;;;;;0.50;99.90;;;;;;4960591;28;20145;-80
2022/03/03 05:44:05;;;;;;;;;;;0.40;99.90;;;;;;4940853;28;21330;-81
2022/03/03 05:46:31;;;;;;;;;;;0.50;99.90;;;;;;4950446;28;20627;-80
2022/03/03 05:48:57;;;;;;;;;;;0.30;99.90;;;;;;4954983;28;19932;-81
2022/03/03 05:51:22;;;;;;;;;;;0.30;99.90;;;;;;4957889;28;20327;-80
2022/03/03 05:53:48;;;;;;;;;;;0.30;99.90;;;;;;4946322;28;20393;-81
2022/03/03 05:56:16;;;;;;;;;;;0.20;99.90;;;;;;4953612;28;20069;-81
2022/03/03 05:58:44;;;;;;;;;;;0.10;99.90;;;;;;4973614;28;19929;-81
2022/03/03 06:01:11;;;;;;;;;;;0.10;99.90;;;;;;4957382;28;19928;-81
2022/03/03 06:03:36;;;;;;;;;;;0.00;99.90;;;;;;4951657;28;20369;-81
2022/03/03 06:06:14;;;;;;;;;;;-0.10;99.90;;;;;;4970496;28;20055;-81
2022/03/03 06:08:41;;;;;;;;;;;-0.10;99.90;;;;;;4973884;28;19939;-81
2022/03/03 06:11:11;;;;;;;;;;;0.00;99.90;;;;;;4939387;28;20733;-81
2022/03/03 06:13:45;;;;;;;;;;;-0.10;99.90;;;;;;4975624;28;20101;-81
2022/03/03 06:16:11;;;;;;;;;;;-0.20;99.90;;;;;;4970300;28;20499;-81
2022/03/03 06:18:36;;;;;;;;;;;-0.10;99.90;;;;;;4955922;28;20298;-81
2022/03/03 06:21:03;;;;;;;;;;;0.00;99.90;;;;;;4956213;28;19929;-81
2022/03/03 06:23:30;;;;;;;;;;;0.10;99.90;;;;;;4981656;28;19971;-81
2022/03/03 06:26:00;;;;;;;;;;;0.00;99.90;;;;;;4956869;28;19928;-81
2022/03/03 06:28:27;;;;;;;;;;;-0.10;99.90;;;;;;4961401;28;19934;-81
2022/03/03 06:30:52;;;;;;;;;;;-0.10;99.90;;;;;;4962019;28;19928;-81
2022/03/03 06:33:18;;;;;;;;;;;0.00;99.90;;;;;;4959836;28;19932;-81
2022/03/03 06:35:44;;;;;;;;;;;-0.20;99.90;;;;;;4964906;28;19929;-81
2022/03/03 06:38:09;;;;;;;;;;;-0.10;99.90;;;;;;4962309;28;20370;-81
2022/03/03 06:40:35;;;;;;;;;;;0.00;99.90;;;;;;4963861;28;20744;-81
2022/03/03 06:43:01;;;;;;;;;;;-0.10;99.90;;;;;;4980617;28;19928;-81
2022/03/03 06:45:31;;;;;;;;;;;0.00;99.90;;;;;;4962156;28;19934;-81
2022/03/03 06:48:00;;;;;;;;;;;0.20;99.90;;;;;;4960813;28;20862;-81
2022/03/03 06:50:27;;;;;;;;;;;0.40;99.90;;;;;;4965894;28;20011;-81
2022/03/03 06:52:53;;;;;;;;;;;0.50;99.90;;;;;;4964152;28;19928;-81
2022/03/03 06:55:26;;;;;;;;;;;0.60;99.90;;;;;;4943116;28;19931;-81
2022/03/03 06:57:56;;;;;;;;;;;0.60;99.90;;;;;;4972860;28;19934;-82
2022/03/03 07:00:23;;;;;;;;;;;0.80;99.90;;;;;;4979472;28;19935;-81
2022/03/03 07:02:50;;;;;;;;;;;0.90;99.90;;;;;;4959695;28;19948;-81
2022/03/03 07:05:16;;;;;;;;;;;1.00;99.90;;;;;;4978440;28;19935;-82
2022/03/03 07:07:43;;;;;;;;;;;1.10;99.90;;;;;;4951844;28;20088;-81
2022/03/03 07:10:09;;;;;;;;;;;1.10;99.90;;;;;;4964652;28;19929;-81
2022/03/03 07:12:35;;;;;;;;;;;1.20;99.90;;;;;;4962157;28;20107;-81
2022/03/03 07:15:00;;;;;;;;;;;1.30;99.90;;;;;;4981424;28;20288;-81
2022/03/03 07:17:47;;;;;;;;;;;1.30;99.90;;;;;;4960420;28;19928;-82
2022/03/03 07:20:17;;;;;;;;;;;1.50;99.90;;;;;;4966634;28;19971;-81
2022/03/03 07:23:01;;;;;;;;;;;1.70;99.90;;;;;;4978543;28;20019;-81
2022/03/03 07:25:31;;;;;;;;;;;1.60;99.90;;;;;;4980853;28;20017;-80
2022/03/03 07:28:01;;;;;;;;;;;1.70;99.90;;;;;;4980950;28;19932;-81
2022/03/03 07:30:26;;;;;;;;;;;1.80;99.90;;;;;;4974531;28;20446;-82
2022/03/03 07:32:55;;;;;;;;;;;1.90;99.90;;;;;;4959882;28;19935;-82
2022/03/03 07:35:22;;;;;;;;;;;2.00;99.90;;;;;;4964485;28;19933;-81
2022/03/03 07:37:48;;;;;;;;;;;2.00;99.90;;;;;;4977266;28;19929;-81
2022/03/03 07:40:13;;;;;;;;;;;2.00;99.90;;;;;;4957431;28;20270;-81
2022/03/03 07:42:39;;;;;;;;;;;2.10;99.90;;;;;;4957805;28;19931;-81
2022/03/03 07:45:07;;;;;;;;;;;2.30;99.90;;;;;;4962727;28;19959;-81
2022/03/03 07:47:33;;;;;;;;;;;2.30;99.90;;;;;;4976612;28;20405;-81
2022/03/03 07:49:59;;;;;;;;;;;2.30;99.90;;;;;;4959524;28;19975;-82
2022/03/03 07:52:25;;;;;;;;;;;2.40;99.90;;;;;;4958554;28;20103;-81
2022/03/03 07:54:51;;;;;;;;;;;2.50;99.90;;;;;;4976994;28;20437;-81
2022/03/03 07:57:17;;;;;;;;;;;2.60;99.90;;;;;;4962217;28;19925;-81
2022/03/03 07:59:47;;;;;;;;;;;2.50;99.90;;;;;;4976249;28;20541;-81
2022/03/03 08:02:15;;;;;;;;;;;2.80;99.90;;;;;;4962069;28;19964;-80
2022/03/03 08:04:41;;;;;;;;;;;2.80;99.90;;;;;;4957204;28;19929;-81
2022/03/03 08:07:07;;;;;;;;;;;3.00;99.90;;;;;;4980255;28;19928;-81
2022/03/03 08:09:33;;;;;;;;;;;3.10;99.90;;;;;;4961221;28;19932;-81
2022/03/03 08:12:02;;;;;;;;;;;3.20;99.90;;;;;;4955699;28;19928;-81
2022/03/03 08:14:29;;;;;;;;;;;3.30;99.90;;;;;;4953454;28;20388;-81
2022/03/03 08:16:55;;;;;;;;;;;3.40;99.90;;;;;;4963133;28;20441;-82
2022/03/03 08:19:21;;;;;;;;;;;3.60;99.90;;;;;;4976687;28;19940;-81
2022/03/03 08:21:47;;;;;;;;;;;3.70;99.90;;;;;;4960548;28;20020;-81
2022/03/03 08:24:13;;;;;;;;;;;3.80;99.90;;;;;;4965494;28;20692;-81
2022/03/03 08:26:40;;;;;;;;;;;3.90;99.90;;;;;;4956086;28;19940;-81
2022/03/03 08:29:06;;;;;;;;;;;3.90;99.90;;;;;;4959947;28;20429;-81
2022/03/03 08:31:38;;;;;;;;;;;4.00;99.90;;;;;;4956493;28;19934;-82
2022/03/03 08:34:12;;;;;;;;;;;4.30;99.90;;;;;;4975770;28;20297;-81
2022/03/03 08:36:45;;;;;;;;;;;4.40;99.90;;;;;;4969024;28;19964;-81
2022/03/03 08:39:12;;;;;;;;;;;4.40;99.90;;;;;;4963442;28;20421;-81
2022/03/03 08:41:39;;;;;;;;;;;4.30;99.90;;;;;;4977674;28;20010;-81
2022/03/03 08:44:05;;;;;;;;;;;4.50;99.90;;;;;;4958202;28;19935;-81
2022/03/03 08:46:32;;;;;;;;;;;4.60;99.90;;;;;;4945383;28;19936;-81
2022/03/03 08:48:59;;;;;;;;;;;4.90;99.90;;;;;;4960735;28;20437;-81
2022/03/03 08:51:24;;;;;;;;;;;4.80;99.90;;;;;;4957084;28;20727;-81
2022/03/03 08:53:50;;;;;;;;;;;5.00;99.90;;;;;;4977996;28;19976;-80
2022/03/03 08:56:16;;;;;;;;;;;5.50;99.90;;;;;;4979671;28;20435;-81
2022/03/03 08:58:42;;;;;;;;;;;5.40;99.90;;;;;;4956566;28;20266;-81
2022/03/03 09:01:08;;;;;;;;;;;5.60;99.90;;;;;;4959623;28;20398;-81
2022/03/03 09:03:33;;;;;;;;;;;5.90;99.90;;;;;;4958758;28;20380;-81
2022/03/03 09:06:00;;;;;;;;;;;5.80;99.90;;;;;;4962662;28;20404;-81
2022/03/03 09:08:26;;;;;;;;;;;5.80;99.90;;;;;;4957583;28;20416;-80
2022/03/03 09:10:52;;;;;;;;;;;6.00;99.90;;;;;;4949114;28;20146;-81
2022/03/03 09:13:18;;;;;;;;;;;6.10;99.90;;;;;;4961477;28;20092;-81
2022/03/03 09:15:44;;;;;;;;;;;6.20;99.90;;;;;;4959922;28;19936;-81
2022/03/03 09:18:09;;;;;;;;;;;6.50;99.90;;;;;;4959797;28;19928;-81
2022/03/03 09:20:35;;;;;;;;;;;6.80;99.90;;;;;;4959393;28;19932;-81
2022/03/03 09:23:01;;;;;;;;;;;6.40;99.90;;;;;;4979688;28;19928;-81
2022/03/03 09:25:27;;;;;;;;;;;6.50;99.90;;;;;;4978224;28;19928;-80
2022/03/03 09:27:53;;;;;;;;;;;6.70;99.90;;;;;;4956725;28;19978;-80
2022/03/03 09:30:19;;;;;;;;;;;6.60;99.90;;;;;;4956560;28;20725;-82
2022/03/03 09:32:44;;;;;;;;;;;6.20;95.10;;;;;;4975435;28;19943;-83
2022/03/03 09:35:10;;;;;;;;;;;6.20;98.80;;;;;;4956347;28;19928;-80
2022/03/03 09:37:36;;;;;;;;;;;6.80;99.90;;;;;;4973611;28;20287;-81
2022/03/03 09:40:03;;;;;;;;;;;6.40;99.90;;;;;;4955513;28;19951;-82
2022/03/03 09:42:34;;;;;;;;;;;6.80;99.90;;;;;;4963248;28;19929;-81
2022/03/03 09:45:09;;;;;;;;;;;6.50;99.90;;;;;;4954950;28;19997;-80
2022/03/03 09:47:36;;;;;;;;;;;7.10;99.90;;;;;;4961888;28;20270;-80
2022/03/03 09:50:02;;;;;;;;;;;7.20;99.90;;;;;;4978925;28;19929;-81
2022/03/03 09:52:30;;;;;;;;;;;6.80;92.80;;;;;;4958973;28;20425;-80
2022/03/03 09:54:57;;;;;;;;;;;7.00;99.90;;;;;;4941556;28;19928;-80
2022/03/03 09:57:24;;;;;;;;;;;7.50;99.90;;;;;;4958217;28;20348;-81
2022/03/03 09:59:52;;;;;;;;;;;7.10;92.00;;;;;;4977332;28;20359;-80
2022/03/03 10:02:18;;;;;;;;;;;7.40;91.10;;;;;;4973387;28;19938;-81
2022/03/03 10:04:44;;;;;;;;;;;7.30;91.70;;;;;;4957695;28;19933;-81
2022/03/03 10:07:10;;;;;;;;;;;7.70;99.90;;;;;;4958495;28;19976;-81
2022/03/03 10:09:59;;;;;;;;;;;7.60;94.00;;;;;;4955525;28;20303;-80
2022/03/03 10:12:22;;;;;;;;;;;7.90;87.30;;;;;;4978532;28;19924;-82
2022/03/03 10:14:48;;;;;;;;;;;7.70;94.40;;;;;;4957207;28;19929;-81
2022/03/03 10:17:14;;;;;;;;;;;8.00;99.90;;;;;;4958098;28;20549;-80
2022/03/03 10:19:53;;;;;;;;;;;8.10;87.80;;;;;;4972004;28;19951;-82
2022/03/03 10:22:23;;;;;;;;;;;8.40;94.40;;;;;;4955541;28;20687;-80
2022/03/03 10:24:51;;;;;;;;;;;8.50;98.50;;;;;;4959162;28;19935;-80
2022/03/03 10:27:19;;;;;;;;;;;8.80;82.30;;;;;;4954290;28;19929;-80
2022/03/03 10:29:47;;;;;;;;;;;8.70;83.50;;;;;;4955589;28;19959;-81
2022/03/03 10:32:22;;;;;;;;;;;8.90;85.70;;;;;;4940934;28;19933;-80
2022/03/03 10:34:49;;;;;;;;;;;9.00;91.00;;;;;;4958398;28;20331;-80
2022/03/03 10:37:20;;;;;;;;;;;9.30;87.00;;;;;;4956897;28;20637;-81
2022/03/03 10:39:48;;;;;;;;;;;8.60;70.40;;;;;;4975240;28;20463;-80
2022/03/03 10:42:18;;;;;;;;;;;8.80;78.00;;;;;;4957837;28;19932;-81
2022/03/03 10:44:44;;;;;;;;;;;9.30;84.20;;;;;;4975853;28;19943;-81
2022/03/03 10:47:11;;;;;;;;;;;8.80;68.20;;;;;;4983795;28;19935;-81
2022/03/03 10:49:38;;;;;;;;;;;9.20;71.30;;;;;;4973290;28;19967;-80
2022/03/03 10:52:14;;;;;;;;;;;9.10;75.70;;;;;;4992121;28;19935;-80
2022/03/03 10:54:58;;;;;;;;;;;9.30;72.00;;;;;;4992080;28;19933;-80
2022/03/03 10:57:35;;;;;;;;;;;9.50;76.10;;;;;;4973688;28;20275;-82
2022/03/03 11:00:03;;;;;;;;;;;9.20;71.90;;;;;;4972478;28;20284;-80
2022/03/03 11:02:29;;;;;;;;;;;9.40;71.00;;;;;;4988623;28;20830;-81
2022/03/03 11:04:55;;;;;;;;;;;9.60;68.40;;;;;;4993946;28;19928;-81
2022/03/03 11:07:22;;;;;;;;;;;9.20;68.00;;;;;;4958099;28;20427;-80
2022/03/03 11:09:48;;;;;;;;;;;9.30;70.40;;;;;;4938539;28;19935;-79
2022/03/03 11:12:15;;;;;;;;;;;9.30;69.20;;;;;;4957902;28;20290;-80
2022/03/03 11:14:41;;;;;;;;;;;9.50;66.90;;;;;;4979402;28;20043;-80
2022/03/03 11:17:07;;;;;;;;;;;9.30;66.10;;;;;;4974778;28;20786;-80
2022/03/03 11:19:33;;;;;;;;;;;9.40;67.50;;;;;;4962057;28;20836;-81
2022/03/03 11:21:59;;;;;;;;;;;9.50;67.30;;;;;;4976338;28;19929;-81
2022/03/03 11:24:25;;;;;;;;;;;9.60;68.00;;;;;;4961545;28;19928;-81
2022/03/03 11:26:51;;;;;;;;;;;9.90;72.50;;;;;;4982774;28;19928;-81
2022/03/03 11:29:18;;;;;;;;;;;9.80;70.00;;;;;;4960728;28;20390;-81
2022/03/03 11:31:44;;;;;;;;;;;9.80;68.10;;;;;;4962913;28;20307;-79
2022/03/03 11:34:19;;;;;;;;;;;10.10;70.80;;;;;;4961447;28;19928;-80
2022/03/03 11:36:45;;;;;;;;;;;9.70;64.70;;;;;;4984931;28;20011;-79
2022/03/03 11:39:30;;;;;;;;;;;10.00;68.70;;;;;;4960591;28;19928;-79
2022/03/03 11:41:56;;;;;;;;;;;9.60;63.10;;;;;;4961867;28;19928;-81
2022/03/03 11:44:31;;;;;;;;;;;9.90;63.50;;;;;;4960661;28;19974;-80
2022/03/03 11:46:58;;;;;;;;;;;9.90;64.20;;;;;;4980970;28;19975;-79
2022/03/03 11:49:24;;;;;;;;;;;10.00;66.20;;;;;;4976150;28;20277;-78
2022/03/03 11:51:50;;;;;;;;;;;10.30;65.80;;;;;;4959655;28;20340;-79
2022/03/03 11:54:23;;;;;;;;;;;10.70;66.60;;;;;;4979019;28;19950;-78
2022/03/03 11:57:15;;;;;;;;;;;10.60;68.20;;;;;;4965339;28;19974;-77
2022/03/03 11:59:46;;;;;;;;;;;10.60;66.60;;;;;;4957082;28;20456;-77
2022/03/03 12:02:14;;;;;;;;;;;10.50;64.40;;;;;;4957124;28;19931;-78
2022/03/03 12:04:40;;;;;;;;;;;10.70;68.10;;;;;;4958801;28;20414;-78
2022/03/03 12:07:25;;;;;;;;;;;10.40;64.10;;;;;;4976316;28;19933;-80
2022/03/03 12:09:51;;;;;;;;;;;10.40;64.20;;;;;;4973143;28;20495;-79
2022/03/03 12:12:19;;;;;;;;;;;10.60;65.70;;;;;;4944501;28;20301;-78
2022/03/03 12:14:51;;;;;;;;;;;10.90;73.10;;;;;;4958113;28;20355;-78
2022/03/03 12:17:38;;;;;;;;;;;10.60;63.70;;;;;;4958886;28;20457;-78
2022/03/03 12:20:22;;;;;;;;;;;10.30;60.50;;;;;;4976979;28;19932;-78
2022/03/03 12:22:58;;;;;;;;;;;10.30;61.40;;;;;;4973201;28;19932;-80
2022/03/03 12:25:50;;;;;;;;;;;10.50;65.30;;;;;;4958984;28;20329;-79
2022/03/03 12:28:16;;;;;;;;;;;10.80;64.50;;;;;;4955269;28;20508;-79
2022/03/03 12:30:43;;;;;;;;;;;10.90;65.40;;;;;;4955066;28;19934;-78
2022/03/03 12:33:19;;;;;;;;;;;10.70;62.90;;;;;;4926192;28;20646;-80
2022/03/03 12:35:45;;;;;;;;;;;10.80;63.90;;;;;;4964330;28;20018;-78
2022/03/03 12:38:11;;;;;;;;;;;10.80;66.30;;;;;;4926256;28;19940;-79
2022/03/03 12:40:36;;;;;;;;;;;10.70;64.80;;;;;;4964460;28;20377;-79
2022/03/03 12:43:02;;;;;;;;;;;10.30;64.50;;;;;;4943826;28;19981;-79
2022/03/03 12:45:31;;;;;;;;;;;10.50;64.10;;;;;;4974110;28;19983;-81
2022/03/03 12:47:57;;;;;;;;;;;10.70;64.10;;;;;;4951291;28;19933;-79
2022/03/03 12:50:26;;;;;;;;;;;10.30;62.60;;;;;;4974945;28;19936;-79
2022/03/03 12:52:55;;;;;;;;;;;10.60;66.00;;;;;;4974193;28;20166;-78
2022/03/03 12:55:25;;;;;;;;;;;10.80;63.80;;;;;;4977052;28;19935;-78
2022/03/03 12:57:51;;;;;;;;;;;10.40;60.90;;;;;;4959512;28;20411;-78
2022/03/03 13:00:17;;;;;;;;;;;10.60;62.10;;;;;;4957590;28;20702;-78
2022/03/03 13:02:52;;;;;;;;;;;10.60;65.70;;;;;;4938003;28;20358;-80
2022/03/03 13:05:37;;;;;;;;;;;10.50;61.40;;;;;;4974623;28;20073;-79
2022/03/03 13:08:04;;;;;;;;;;;10.70;62.40;;;;;;4977658;28;20730;-79
2022/03/03 13:10:31;;;;;;;;;;;10.80;64.60;;;;;;4975938;28;20722;-79
2022/03/03 13:12:58;;;;;;;;;;;11.20;64.20;;;;;;4955525;28;20731;-80
2022/03/03 13:15:43;;;;;;;;;;;10.90;62.60;;;;;;4976839;28;20087;-78
2022/03/03 13:18:12;;;;;;;;;;;10.80;61.50;;;;;;4979938;28;19939;-78
2022/03/03 13:20:40;;;;;;;;;;;10.90;62.00;;;;;;4954114;28;20860;-78
2022/03/03 13:23:10;;;;;;;;;;;10.70;58.90;;;;;;4951644;28;19929;-79
2022/03/03 13:25:36;;;;;;;;;;;10.90;60.70;;;;;;4973219;28;19933;-78
2022/03/03 13:28:03;;;;;;;;;;;10.70;59.30;;;;;;4949704;28;20385;-78
2022/03/03 13:30:28;;;;;;;;;;;11.00;62.00;;;;;;4955125;28;19928;-79
2022/03/03 13:32:54;;;;;;;;;;;10.90;60.20;;;;;;4956272;28;19964;-78
2022/03/03 13:35:21;;;;;;;;;;;11.20;59.50;;;;;;4970911;28;20426;-79
2022/03/03 13:37:47;;;;;;;;;;;11.20;59.10;;;;;;4968475;28;20360;-79
2022/03/03 13:40:16;;;;;;;;;;;10.90;59.20;;;;;;4972552;28;20409;-78
2022/03/03 13:42:42;;;;;;;;;;;11.00;59.60;;;;;;4951737;28;20676;-79
2022/03/03 13:45:08;;;;;;;;;;;11.00;59.00;;;;;;4916683;28;19939;-80
2022/03/03 13:47:39;;;;;;;;;;;11.00;59.10;;;;;;4972659;28;20339;-79
2022/03/03 13:50:09;;;;;;;;;;;10.80;58.50;;;;;;4958656;28;20441;-82
2022/03/03 13:52:37;;;;;;;;;;;10.80;58.00;;;;;;4955860;28;19928;-79
2022/03/03 13:55:17;;;;;;;;;;;11.00;60.00;;;;;;4976615;28;19928;-80
2022/03/03 13:57:49;;;;;;;;;;;10.80;58.10;;;;;;4957458;28;19932;-79
2022/03/03 14:00:15;;;;;;;;;;;11.00;58.60;;;;;;4931980;28;19938;-79
2022/03/03 14:03:13;;;;;;;;;;;10.90;59.60;;;;;;4964585;28;19936;-81
2022/03/03 14:05:45;;;;;;;;;;;10.80;58.00;;;;;;4973565;28;19928;-79
2022/03/03 14:08:23;;;;;;;;;;;11.00;60.30;;;;;;4937039;28;19928;-79
2022/03/03 14:11:05;;;;;;;;;;;10.80;55.90;;;;;;4957446;28;19928;-80
2022/03/03 14:13:51;;;;;;;;;;;10.80;56.10;;;;;;4971677;28;20002;-78
2022/03/03 14:16:19;;;;;;;;;;;11.30;60.50;;;;;;4975663;28;19943;-79
2022/03/03 14:18:45;;;;;;;;;;;11.10;56.30;;;;;;4971955;28;19928;-79
2022/03/03 14:21:11;;;;;;;;;;;11.10;58.50;;;;;;4954904;28;21149;-79
2022/03/03 14:23:38;;;;;;;;;;;11.20;59.30;;;;;;4956284;28;19933;-79
2022/03/03 14:26:04;;;;;;;;;;;11.20;54.20;;;;;;4956838;28;19932;-80
2022/03/03 14:28:30;;;;;;;;;;;10.90;55.80;;;;;;4953078;28;19979;-80